sensor_id;sensor_type;location;lat;lon;timestamp;temperature;humidity
76967;DHT22;65904;52.278;20.972;2023-11-21T00:01:02;0.70;99.90
76967;DHT22;65904;52.278;20.972;2023-11-21T00:03:49;0.70;99.90
76967;DHT22;65904;52.278;20.972;2023-11-21T00:06:35;0.70;99.90
76967;DHT22;65904;52.278;20.972;2023-11-21T00:09:21;0.60;99.90
76967;DHT22;65904;52.278;20.972;2023-11-21T00:12:08;0.60;99.90
76967;DHT22;65904;52.278;20.972;2023-11-21T00:14:56;0.60;99.90
76967;DHT22;65904;52.278;20.972;2023-11-21T00:17:43;0.50;99.90
76967;DHT22;65904;52.278;20.972;2023-11-21T00:20:29;0.50;99.90
76967;DHT22;65904;52.278;20.972;2023-11-21T00:23:15;0.50;99.90
76967;DHT22;65904;52.278;20.972;2023-11-21T00:26:01;0.50;99.90
76967;DHT22;65904;52.278;20.972;2023-11-21T00:28:48;0.50;99.90
76967;DHT22;65904;52.278;20.972;2023-11-21T00:31:36;0.50;99.90
76967;DHT22;65904;52.278;20.972;2023-11-21T00:34:24;0.50;99.90
76967;DHT22;65904;52.278;20.972;2023-11-21T00:37:10;0.50;99.90
76967;DHT22;65904;52.278;20.972;2023-11-21T00:39:56;0.50;99.90
76967;DHT22;65904;52.278;20.972;2023-11-21T00:42:42;0.50;99.90
76967;DHT22;65904;52.278;20.972;2023-11-21T00:45:28;0.40;99.90
76967;DHT22;65904;52.278;20.972;2023-11-21T00:48:16;0.40;99.90
76967;DHT22;65904;52.278;20.972;2023-11-21T00:51:03;0.40;99.90
76967;DHT22;65904;52.278;20.972;2023-11-21T00:53:50;0.50;99.90
76967;DHT22;65904;52.278;20.972;2023-11-21T00:56:37;0.40;99.90
76967;DHT22;65904;52.278;20.972;2023-11-21T00:59:23;0.40;99.90
76967;DHT22;65904;52.278;20.972;2023-11-21T01:02:09;0.40;99.90
76967;DHT22;65904;52.278;20.972;2023-11-21T01:04:57;0.40;99.90
76967;DHT22;65904;52.278;20.972;2023-11-21T01:07:43;0.30;99.90
76967;DHT22;65904;52.278;20.972;2023-11-21T01:10:29;0.30;99.90
76967;DHT22;65904;52.278;20.972;2023-11-21T01:13:15;0.30;99.90
76967;DHT22;65904;52.278;20.972;2023-11-21T01:16:01;0.30;99.90
76967;DHT22;65904;52.278;20.972;2023-11-21T01:18:49;0.30;99.90
76967;DHT22;65904;52.278;20.972;2023-11-21T01:21:36;0.30;99.90
76967;DHT22;65904;52.278;20.972;2023-11-21T01:24:22;0.30;99.90
76967;DHT22;65904;52.278;20.972;2023-11-21T01:27:08;0.30;99.90
76967;DHT22;65904;52.278;20.972;2023-11-21T01:29:55;0.30;99.90
76967;DHT22;65904;52.278;20.972;2023-11-21T01:32:40;0.30;99.90
76967;DHT22;65904;52.278;20.972;2023-11-21T01:35:28;0.30;99.90
76967;DHT22;65904;52.278;20.972;2023-11-21T01:38:15;0.30;99.90
76967;DHT22;65904;52.278;20.972;2023-11-21T01:41:02;0.30;99.90
76967;DHT22;65904;52.278;20.972;2023-11-21T01:43:49;0.30;99.90
76967;DHT22;65904;52.278;20.972;2023-11-21T01:46:36;0.20;99.90
76967;DHT22;65904;52.278;20.972;2023-11-21T01:49:23;0.30;99.90
76967;DHT22;65904;52.278;20.972;2023-11-21T01:52:09;0.20;99.90
76967;DHT22;65904;52.278;20.972;2023-11-21T01:54:57;0.20;99.90
76967;DHT22;65904;52.278;20.972;2023-11-21T01:57:45;0.20;99.90
76967;DHT22;65904;52.278;20.972;2023-11-21T02:00:31;0.30;99.90
76967;DHT22;65904;52.278;20.972;2023-11-21T02:03:18;0.30;99.90
76967;DHT22;65904;52.278;20.972;2023-11-21T02:06:05;0.30;99.90
76967;DHT22;65904;52.278;20.972;2023-11-21T02:08:51;0.30;99.90
76967;DHT22;65904;52.278;20.972;2023-11-21T02:11:39;0.30;99.90
76967;DHT22;65904;52.278;20.972;2023-11-21T02:14:26;0.30;99.90
76967;DHT22;65904;52.278;20.972;2023-11-21T02:17:12;0.30;99.90
76967;DHT22;65904;52.278;20.972;2023-11-21T02:19:59;0.30;99.90
76967;DHT22;65904;52.278;20.972;2023-11-21T02:22:50;0.30;99.90
76967;DHT22;65904;52.278;20.972;2023-11-21T02:25:42;0.30;99.90
76967;DHT22;65904;52.278;20.972;2023-11-21T02:28:29;0.30;99.90
76967;DHT22;65904;52.278;20.972;2023-11-21T02:31:15;0.30;99.90
76967;DHT22;65904;52.278;20.972;2023-11-21T02:34:01;0.30;99.90
76967;DHT22;65904;52.278;20.972;2023-11-21T02:36:48;0.30;99.90
76967;DHT22;65904;52.278;20.972;2023-11-21T02:39:37;0.30;99.90
76967;DHT22;65904;52.278;20.972;2023-11-21T02:42:23;0.30;99.90
76967;DHT22;65904;52.278;20.972;2023-11-21T02:45:09;0.30;99.90
76967;DHT22;65904;52.278;20.972;2023-11-21T02:47:59;0.30;99.90
76967;DHT22;65904;52.278;20.972;2023-11-21T02:50:44;0.30;99.90
76967;DHT22;65904;52.278;20.972;2023-11-21T02:53:31;0.30;99.90
76967;DHT22;65904;52.278;20.972;2023-11-21T02:56:18;0.30;99.90
76967;DHT22;65904;52.278;20.972;2023-11-21T02:59:04;0.20;99.90
76967;DHT22;65904;52.278;20.972;2023-11-21T03:01:50;0.20;99.90
76967;DHT22;65904;52.278;20.972;2023-11-21T03:04:36;0.20;99.90
76967;DHT22;65904;52.278;20.972;2023-11-21T03:07:23;0.20;99.90
76967;DHT22;65904;52.278;20.972;2023-11-21T03:10:10;0.20;99.90
76967;DHT22;65904;52.278;20.972;2023-11-21T03:12:58;0.20;99.90
76967;DHT22;65904;52.278;20.972;2023-11-21T03:15:44;0.20;99.90
76967;DHT22;65904;52.278;20.972;2023-11-21T03:18:30;0.20;99.90
76967;DHT22;65904;52.278;20.972;2023-11-21T03:21:16;0.20;99.90
76967;DHT22;65904;52.278;20.972;2023-11-21T03:24:03;0.20;99.90
76967;DHT22;65904;52.278;20.972;2023-11-21T03:26:49;0.20;99.90
76967;DHT22;65904;52.278;20.972;2023-11-21T03:29:37;0.10;99.90
76967;DHT22;65904;52.278;20.972;2023-11-21T03:32:24;0.10;99.90
76967;DHT22;65904;52.278;20.972;2023-11-21T03:35:10;0.20;99.90
76967;DHT22;65904;52.278;20.972;2023-11-21T03:37:56;0.10;99.90
76967;DHT22;65904;52.278;20.972;2023-11-21T03:40:42;0.10;99.90
76967;DHT22;65904;52.278;20.972;2023-11-21T03:43:28;0.10;99.90
76967;DHT22;65904;52.278;20.972;2023-11-21T03:46:16;0.10;99.90
76967;DHT22;65904;52.278;20.972;2023-11-21T03:49:02;0.00;99.90
76967;DHT22;65904;52.278;20.972;2023-11-21T03:51:48;0.00;99.90
76967;DHT22;65904;52.278;20.972;2023-11-21T03:54:34;0.00;99.90
76967;DHT22;65904;52.278;20.972;2023-11-21T03:57:21;0.00;99.90
76967;DHT22;65904;52.278;20.972;2023-11-21T04:00:08;0.00;99.90
76967;DHT22;65904;52.278;20.972;2023-11-21T04:02:59;-0.10;99.90
76967;DHT22;65904;52.278;20.972;2023-11-21T04:05:45;-0.10;99.90
76967;DHT22;65904;52.278;20.972;2023-11-21T04:08:32;-0.10;99.90
76967;DHT22;65904;52.278;20.972;2023-11-21T04:11:18;-0.10;99.90
76967;DHT22;65904;52.278;20.972;2023-11-21T04:14:04;-0.10;99.90
76967;DHT22;65904;52.278;20.972;2023-11-21T04:16:51;-0.20;99.90
76967;DHT22;65904;52.278;20.972;2023-11-21T04:19:39;-0.20;99.90
76967;DHT22;65904;52.278;20.972;2023-11-21T04:22:25;-0.20;99.90
76967;DHT22;65904;52.278;20.972;2023-11-21T04:25:14;-0.10;99.90
76967;DHT22;65904;52.278;20.972;2023-11-21T04:28:00;-0.10;99.90
76967;DHT22;65904;52.278;20.972;2023-11-21T04:30:46;-0.20;99.90
76967;DHT22;65904;52.278;20.972;2023-11-21T04:33:32;-0.20;99.90
76967;DHT22;65904;52.278;20.972;2023-11-21T04:36:20;-0.20;99.90
76967;DHT22;65904;52.278;20.972;2023-11-21T04:39:06;-0.20;99.90
76967;DHT22;65904;52.278;20.972;2023-11-21T04:41:52;-0.10;99.90
76967;DHT22;65904;52.278;20.972;2023-11-21T04:44:38;-0.10;99.90
76967;DHT22;65904;52.278;20.972;2023-11-21T04:47:25;-0.10;99.90
76967;DHT22;65904;52.278;20.972;2023-11-21T04:50:11;-0.10;99.90
76967;DHT22;65904;52.278;20.972;2023-11-21T04:52:58;-0.10;99.90
76967;DHT22;65904;52.278;20.972;2023-11-21T04:55:45;-0.10;99.90
76967;DHT22;65904;52.278;20.972;2023-11-21T04:58:31;-0.10;99.90
76967;DHT22;65904;52.278;20.972;2023-11-21T05:01:18;-0.10;99.90
76967;DHT22;65904;52.278;20.972;2023-11-21T05:04:04;-0.10;99.90
76967;DHT22;65904;52.278;20.972;2023-11-21T05:06:51;-0.10;99.90
76967;DHT22;65904;52.278;20.972;2023-11-21T05:09:41;-0.20;99.90
76967;DHT22;65904;52.278;20.972;2023-11-21T05:12:31;-0.20;99.90
76967;DHT22;65904;52.278;20.972;2023-11-21T05:15:19;-0.10;99.90
76967;DHT22;65904;52.278;20.972;2023-11-21T05:18:06;-0.10;99.90
76967;DHT22;65904;52.278;20.972;2023-11-21T05:20:52;-0.10;99.90
76967;DHT22;65904;52.278;20.972;2023-11-21T05:23:38;-0.10;99.90
76967;DHT22;65904;52.278;20.972;2023-11-21T05:26:25;-0.10;99.90
76967;DHT22;65904;52.278;20.972;2023-11-21T05:29:12;-0.10;99.90
76967;DHT22;65904;52.278;20.972;2023-11-21T05:31:58;-0.10;99.90
76967;DHT22;65904;52.278;20.972;2023-11-21T05:34:44;-0.10;99.90
76967;DHT22;65904;52.278;20.972;2023-11-21T05:37:30;-0.10;99.90
76967;DHT22;65904;52.278;20.972;2023-11-21T05:40:17;-0.10;99.90
76967;DHT22;65904;52.278;20.972;2023-11-21T05:43:04;-0.10;99.90
76967;DHT22;65904;52.278;20.972;2023-11-21T05:45:51;-0.10;99.90
76967;DHT22;65904;52.278;20.972;2023-11-21T05:48:37;-0.20;99.90
76967;DHT22;65904;52.278;20.972;2023-11-21T05:51:23;-0.20;99.90
76967;DHT22;65904;52.278;20.972;2023-11-21T05:54:09;-0.20;99.90
76967;DHT22;65904;52.278;20.972;2023-11-21T05:56:55;-0.10;99.90
76967;DHT22;65904;52.278;20.972;2023-11-21T05:59:44;-0.10;99.90
76967;DHT22;65904;52.278;20.972;2023-11-21T06:02:31;-0.10;99.90
76967;DHT22;65904;52.278;20.972;2023-11-21T06:05:17;-0.10;99.90
76967;DHT22;65904;52.278;20.972;2023-11-21T06:08:04;-0.10;99.90
76967;DHT22;65904;52.278;20.972;2023-11-21T06:10:51;-0.10;99.90
76967;DHT22;65904;52.278;20.972;2023-11-21T06:13:38;-0.10;99.90
76967;DHT22;65904;52.278;20.972;2023-11-21T06:16:25;-0.10;99.90
76967;DHT22;65904;52.278;20.972;2023-11-21T06:19:12;-0.10;99.90
76967;DHT22;65904;52.278;20.972;2023-11-21T06:21:59;-0.10;99.90
76967;DHT22;65904;52.278;20.972;2023-11-21T06:24:46;-0.10;99.90
76967;DHT22;65904;52.278;20.972;2023-11-21T06:27:33;-0.10;99.90
76967;DHT22;65904;52.278;20.972;2023-11-21T06:30:21;-0.10;99.90
76967;DHT22;65904;52.278;20.972;2023-11-21T06:33:09;-0.10;99.90
76967;DHT22;65904;52.278;20.972;2023-11-21T06:35:56;-0.20;99.90
76967;DHT22;65904;52.278;20.972;2023-11-21T06:38:42;-0.20;99.90
76967;DHT22;65904;52.278;20.972;2023-11-21T06:41:29;-0.20;99.90
76967;DHT22;65904;52.278;20.972;2023-11-21T06:44:15;-0.20;99.90
76967;DHT22;65904;52.278;20.972;2023-11-21T06:47:01;-0.20;99.90
76967;DHT22;65904;52.278;20.972;2023-11-21T06:49:49;-0.20;99.90
76967;DHT22;65904;52.278;20.972;2023-11-21T06:52:35;-0.20;99.90
76967;DHT22;65904;52.278;20.972;2023-11-21T06:55:21;-0.20;99.90
76967;DHT22;65904;52.278;20.972;2023-11-21T06:58:07;-0.20;99.90
76967;DHT22;65904;52.278;20.972;2023-11-21T07:00:53;-0.20;99.90
76967;DHT22;65904;52.278;20.972;2023-11-21T07:03:39;-0.20;99.90
76967;DHT22;65904;52.278;20.972;2023-11-21T07:06:28;-0.20;99.90
76967;DHT22;65904;52.278;20.972;2023-11-21T07:09:14;-0.20;99.90
76967;DHT22;65904;52.278;20.972;2023-11-21T07:12:00;-0.10;99.90
76967;DHT22;65904;52.278;20.972;2023-11-21T07:14:48;-0.20;99.90
76967;DHT22;65904;52.278;20.972;2023-11-21T07:17:34;-0.10;99.90
76967;DHT22;65904;52.278;20.972;2023-11-21T07:20:22;-0.10;99.90
76967;DHT22;65904;52.278;20.972;2023-11-21T07:23:09;-0.20;99.90
76967;DHT22;65904;52.278;20.972;2023-11-21T07:25:56;-0.20;99.90
76967;DHT22;65904;52.278;20.972;2023-11-21T07:28:42;-0.20;99.90
76967;DHT22;65904;52.278;20.972;2023-11-21T07:31:28;-0.20;99.90
76967;DHT22;65904;52.278;20.972;2023-11-21T07:34:15;-0.10;99.90
76967;DHT22;65904;52.278;20.972;2023-11-21T07:37:01;-0.10;99.90
76967;DHT22;65904;52.278;20.972;2023-11-21T07:39:49;-0.10;99.90
76967;DHT22;65904;52.278;20.972;2023-11-21T07:42:39;-0.10;99.90
76967;DHT22;65904;52.278;20.972;2023-11-21T07:45:27;-0.10;99.90
76967;DHT22;65904;52.278;20.972;2023-11-21T07:48:13;0.00;99.90
76967;DHT22;65904;52.278;20.972;2023-11-21T07:51:02;0.00;99.90
76967;DHT22;65904;52.278;20.972;2023-11-21T07:53:49;0.00;99.90
76967;DHT22;65904;52.278;20.972;2023-11-21T07:56:36;0.00;99.90
76967;DHT22;65904;52.278;20.972;2023-11-21T07:59:22;0.10;99.90
76967;DHT22;65904;52.278;20.972;2023-11-21T08:02:09;0.10;99.90
76967;DHT22;65904;52.278;20.972;2023-11-21T08:04:55;0.20;99.90
76967;DHT22;65904;52.278;20.972;2023-11-21T08:07:41;0.20;99.90
76967;DHT22;65904;52.278;20.972;2023-11-21T08:10:28;0.30;99.90
76967;DHT22;65904;52.278;20.972;2023-11-21T08:13:16;0.30;99.90
76967;DHT22;65904;52.278;20.972;2023-11-21T08:16:02;0.30;99.90
76967;DHT22;65904;52.278;20.972;2023-11-21T08:18:49;0.30;99.90
76967;DHT22;65904;52.278;20.972;2023-11-21T08:21:36;0.40;99.90
76967;DHT22;65904;52.278;20.972;2023-11-21T08:24:24;0.40;99.90
76967;DHT22;65904;52.278;20.972;2023-11-21T08:27:11;0.40;99.90
76967;DHT22;65904;52.278;20.972;2023-11-21T08:30:02;0.40;99.90
76967;DHT22;65904;52.278;20.972;2023-11-21T08:32:49;0.50;99.90
76967;DHT22;65904;52.278;20.972;2023-11-21T08:35:36;0.50;99.90
76967;DHT22;65904;52.278;20.972;2023-11-21T08:38:22;0.50;99.90
76967;DHT22;65904;52.278;20.972;2023-11-21T08:41:08;0.50;99.90
76967;DHT22;65904;52.278;20.972;2023-11-21T08:43:55;0.40;99.90
76967;DHT22;65904;52.278;20.972;2023-11-21T08:46:44;0.40;99.90
76967;DHT22;65904;52.278;20.972;2023-11-21T08:49:31;0.40;99.90
76967;DHT22;65904;52.278;20.972;2023-11-21T08:52:18;0.40;99.90
76967;DHT22;65904;52.278;20.972;2023-11-21T08:55:06;0.40;99.90
76967;DHT22;65904;52.278;20.972;2023-11-21T08:57:53;0.40;99.90
76967;DHT22;65904;52.278;20.972;2023-11-21T09:00:40;0.50;99.90
76967;DHT22;65904;52.278;20.972;2023-11-21T09:03:27;0.50;99.90
76967;DHT22;65904;52.278;20.972;2023-11-21T09:06:14;0.60;99.90
76967;DHT22;65904;52.278;20.972;2023-11-21T09:09:00;0.70;99.90
76967;DHT22;65904;52.278;20.972;2023-11-21T09:11:47;0.70;99.90
76967;DHT22;65904;52.278;20.972;2023-11-21T09:14:34;0.70;99.90
76967;DHT22;65904;52.278;20.972;2023-11-21T09:17:20;0.80;99.90
76967;DHT22;65904;52.278;20.972;2023-11-21T09:20:08;0.90;99.90
76967;DHT22;65904;52.278;20.972;2023-11-21T09:22:56;1.00;99.90
76967;DHT22;65904;52.278;20.972;2023-11-21T09:25:42;1.00;99.90
76967;DHT22;65904;52.278;20.972;2023-11-21T09:28:31;1.00;99.90
76967;DHT22;65904;52.278;20.972;2023-11-21T09:31:17;1.00;99.90
76967;DHT22;65904;52.278;20.972;2023-11-21T09:34:07;1.10;99.90
76967;DHT22;65904;52.278;20.972;2023-11-21T09:36:55;1.10;99.90
76967;DHT22;65904;52.278;20.972;2023-11-21T09:39:41;1.10;99.90
76967;DHT22;65904;52.278;20.972;2023-11-21T09:42:32;1.20;99.90
76967;DHT22;65904;52.278;20.972;2023-11-21T09:45:25;1.20;99.90
76967;DHT22;65904;52.278;20.972;2023-11-21T09:48:12;1.20;99.90
76967;DHT22;65904;52.278;20.972;2023-11-21T09:51:00;1.20;99.90
76967;DHT22;65904;52.278;20.972;2023-11-21T09:53:50;1.30;99.90
76967;DHT22;65904;52.278;20.972;2023-11-21T09:56:38;1.20;99.90
76967;DHT22;65904;52.278;20.972;2023-11-21T09:59:25;1.30;99.90
76967;DHT22;65904;52.278;20.972;2023-11-21T10:02:17;1.30;99.90
76967;DHT22;65904;52.278;20.972;2023-11-21T10:05:05;1.30;99.90
76967;DHT22;65904;52.278;20.972;2023-11-21T10:07:51;1.30;99.90
76967;DHT22;65904;52.278;20.972;2023-11-21T10:10:43;1.30;99.90
76967;DHT22;65904;52.278;20.972;2023-11-21T10:13:31;1.30;99.90
76967;DHT22;65904;52.278;20.972;2023-11-21T10:16:19;1.30;99.90
76967;DHT22;65904;52.278;20.972;2023-11-21T10:19:10;1.20;99.90
76967;DHT22;65904;52.278;20.972;2023-11-21T10:22:00;1.20;99.90
76967;DHT22;65904;52.278;20.972;2023-11-21T10:24:48;1.20;99.90
76967;DHT22;65904;52.278;20.972;2023-11-21T10:27:37;1.20;99.90
76967;DHT22;65904;52.278;20.972;2023-11-21T10:30:28;1.10;99.90
76967;DHT22;65904;52.278;20.972;2023-11-21T10:33:17;1.10;99.90
76967;DHT22;65904;52.278;20.972;2023-11-21T10:36:12;1.00;99.90
76967;DHT22;65904;52.278;20.972;2023-11-21T10:39:00;1.00;99.90
76967;DHT22;65904;52.278;20.972;2023-11-21T10:41:47;0.90;99.90
76967;DHT22;65904;52.278;20.972;2023-11-21T10:44:35;0.90;99.90
76967;DHT22;65904;52.278;20.972;2023-11-21T10:47:21;1.00;99.90
76967;DHT22;65904;52.278;20.972;2023-11-21T10:50:09;1.00;99.90
76967;DHT22;65904;52.278;20.972;2023-11-21T10:52:56;0.80;99.90
76967;DHT22;65904;52.278;20.972;2023-11-21T10:55:42;0.80;99.90
76967;DHT22;65904;52.278;20.972;2023-11-21T10:58:29;0.80;99.90
76967;DHT22;65904;52.278;20.972;2023-11-21T11:01:19;0.80;99.90
76967;DHT22;65904;52.278;20.972;2023-11-21T11:04:08;0.80;99.90
76967;DHT22;65904;52.278;20.972;2023-11-21T11:07:02;0.80;99.90
76967;DHT22;65904;52.278;20.972;2023-11-21T11:09:49;0.80;99.90
76967;DHT22;65904;52.278;20.972;2023-11-21T11:12:35;0.80;99.90
76967;DHT22;65904;52.278;20.972;2023-11-21T11:15:22;0.90;99.90
76967;DHT22;65904;52.278;20.972;2023-11-21T11:18:10;0.90;99.90
76967;DHT22;65904;52.278;20.972;2023-11-21T11:21:20;1.00;99.90
76967;DHT22;65904;52.278;20.972;2023-11-21T11:24:18;1.00;99.90
76967;DHT22;65904;52.278;20.972;2023-11-21T11:27:15;1.00;99.90
76967;DHT22;65904;52.278;20.972;2023-11-21T11:30:14;1.00;99.90
76967;DHT22;65904;52.278;20.972;2023-11-21T11:33:08;0.90;99.90
76967;DHT22;65904;52.278;20.972;2023-11-21T11:36:04;0.80;99.90
76967;DHT22;65904;52.278;20.972;2023-11-21T11:38:52;0.80;99.90
76967;DHT22;65904;52.278;20.972;2023-11-21T11:41:40;0.80;99.90
76967;DHT22;65904;52.278;20.972;2023-11-21T11:44:47;0.80;99.90
76967;DHT22;65904;52.278;20.972;2023-11-21T11:47:36;0.80;99.90
76967;DHT22;65904;52.278;20.972;2023-11-21T11:50:25;0.80;99.90
76967;DHT22;65904;52.278;20.972;2023-11-21T11:53:15;0.70;99.90
76967;DHT22;65904;52.278;20.972;2023-11-21T11:56:22;0.70;99.90
76967;DHT22;65904;52.278;20.972;2023-11-21T11:59:10;0.60;99.90
76967;DHT22;65904;52.278;20.972;2023-11-21T12:01:57;0.60;99.90
76967;DHT22;65904;52.278;20.972;2023-11-21T12:04:43;0.60;99.90
76967;DHT22;65904;52.278;20.972;2023-11-21T12:07:41;0.60;99.90
76967;DHT22;65904;52.278;20.972;2023-11-21T12:10:31;0.80;99.90
76967;DHT22;65904;52.278;20.972;2023-11-21T12:13:18;0.80;99.90
76967;DHT22;65904;52.278;20.972;2023-11-21T12:16:05;0.80;99.90
76967;DHT22;65904;52.278;20.972;2023-11-21T12:18:52;0.80;99.90
76967;DHT22;65904;52.278;20.972;2023-11-21T12:21:38;0.70;99.90
76967;DHT22;65904;52.278;20.972;2023-11-21T12:24:25;0.80;99.90
76967;DHT22;65904;52.278;20.972;2023-11-21T12:27:15;0.80;99.90
76967;DHT22;65904;52.278;20.972;2023-11-21T12:30:01;0.80;99.90
76967;DHT22;65904;52.278;20.972;2023-11-21T12:32:49;0.80;99.90
76967;DHT22;65904;52.278;20.972;2023-11-21T12:35:37;0.90;99.90
76967;DHT22;65904;52.278;20.972;2023-11-21T12:38:23;0.90;99.90
76967;DHT22;65904;52.278;20.972;2023-11-21T12:41:09;0.90;99.90
76967;DHT22;65904;52.278;20.972;2023-11-21T12:43:57;0.90;99.90
76967;DHT22;65904;52.278;20.972;2023-11-21T12:46:44;0.80;99.90
76967;DHT22;65904;52.278;20.972;2023-11-21T12:49:31;0.80;99.90
76967;DHT22;65904;52.278;20.972;2023-11-21T12:52:18;0.80;99.90
76967;DHT22;65904;52.278;20.972;2023-11-21T12:55:05;0.80;99.90
76967;DHT22;65904;52.278;20.972;2023-11-21T12:57:53;0.80;99.90
76967;DHT22;65904;52.278;20.972;2023-11-21T13:00:44;0.80;99.90
76967;DHT22;65904;52.278;20.972;2023-11-21T13:03:31;0.90;99.90
76967;DHT22;65904;52.278;20.972;2023-11-21T13:06:18;0.90;99.90
76967;DHT22;65904;52.278;20.972;2023-11-21T13:09:05;0.90;99.90
76967;DHT22;65904;52.278;20.972;2023-11-21T13:11:51;0.90;99.90
76967;DHT22;65904;52.278;20.972;2023-11-21T13:14:46;0.80;99.90
76967;DHT22;65904;52.278;20.972;2023-11-21T13:17:33;0.70;99.90
76967;DHT22;65904;52.278;20.972;2023-11-21T13:20:20;0.70;99.90
76967;DHT22;65904;52.278;20.972;2023-11-21T13:23:08;0.60;99.90
76967;DHT22;65904;52.278;20.972;2023-11-21T13:25:56;0.60;99.90
76967;DHT22;65904;52.278;20.972;2023-11-21T13:28:42;0.60;99.90
76967;DHT22;65904;52.278;20.972;2023-11-21T13:31:31;0.50;99.90
76967;DHT22;65904;52.278;20.972;2023-11-21T13:34:22;0.50;99.90
76967;DHT22;65904;52.278;20.972;2023-11-21T13:37:12;0.50;99.90
76967;DHT22;65904;52.278;20.972;2023-11-21T13:39:58;0.50;99.90
76967;DHT22;65904;52.278;20.972;2023-11-21T13:42:44;0.60;99.90
76967;DHT22;65904;52.278;20.972;2023-11-21T13:45:30;0.60;99.90
76967;DHT22;65904;52.278;20.972;2023-11-21T13:48:17;0.60;99.90
76967;DHT22;65904;52.278;20.972;2023-11-21T13:51:11;0.60;99.90
76967;DHT22;65904;52.278;20.972;2023-11-21T13:54:02;0.60;99.90
76967;DHT22;65904;52.278;20.972;2023-11-21T13:56:54;0.50;99.90
76967;DHT22;65904;52.278;20.972;2023-11-21T13:59:40;0.50;99.90
76967;DHT22;65904;52.278;20.972;2023-11-21T14:02:28;0.40;99.90
76967;DHT22;65904;52.278;20.972;2023-11-21T14:05:22;0.30;99.90
76967;DHT22;65904;52.278;20.972;2023-11-21T14:08:15;0.30;99.90
76967;DHT22;65904;52.278;20.972;2023-11-21T14:11:05;0.20;99.90
76967;DHT22;65904;52.278;20.972;2023-11-21T14:13:51;0.20;99.90
76967;DHT22;65904;52.278;20.972;2023-11-21T14:16:38;0.10;99.90
76967;DHT22;65904;52.278;20.972;2023-11-21T14:19:27;0.10;99.90
76967;DHT22;65904;52.278;20.972;2023-11-21T14:22:17;0.10;99.90
76967;DHT22;65904;52.278;20.972;2023-11-21T14:25:05;0.10;99.90
76967;DHT22;65904;52.278;20.972;2023-11-21T14:27:51;0.10;99.90
76967;DHT22;65904;52.278;20.972;2023-11-21T14:30:37;0.10;99.90
76967;DHT22;65904;52.278;20.972;2023-11-21T14:33:25;0.00;99.90
76967;DHT22;65904;52.278;20.972;2023-11-21T14:36:11;0.00;99.90
76967;DHT22;65904;52.278;20.972;2023-11-21T14:38:58;0.00;99.90
76967;DHT22;65904;52.278;20.972;2023-11-21T14:41:45;-0.10;99.90
76967;DHT22;65904;52.278;20.972;2023-11-21T14:44:31;-0.10;99.90
76967;DHT22;65904;52.278;20.972;2023-11-21T14:47:24;-0.10;99.90
76967;DHT22;65904;52.278;20.972;2023-11-21T14:50:12;-0.10;99.90
76967;DHT22;65904;52.278;20.972;2023-11-21T14:53:12;-0.10;99.90
76967;DHT22;65904;52.278;20.972;2023-11-21T14:55:58;0.00;99.90
76967;DHT22;65904;52.278;20.972;2023-11-21T14:58:46;-0.10;99.90
76967;DHT22;65904;52.278;20.972;2023-11-21T15:01:33;-0.10;99.90
76967;DHT22;65904;52.278;20.972;2023-11-21T15:04:39;-0.10;99.90
76967;DHT22;65904;52.278;20.972;2023-11-21T15:07:27;-0.20;99.90
76967;DHT22;65904;52.278;20.972;2023-11-21T15:10:12;-0.20;99.90
76967;DHT22;65904;52.278;20.972;2023-11-21T15:12:59;-0.20;99.90
76967;DHT22;65904;52.278;20.972;2023-11-21T15:15:46;-0.20;99.90
76967;DHT22;65904;52.278;20.972;2023-11-21T15:18:32;-0.20;99.90
76967;DHT22;65904;52.278;20.972;2023-11-21T15:21:20;-0.20;99.90
76967;DHT22;65904;52.278;20.972;2023-11-21T15:24:09;-0.20;99.90
76967;DHT22;65904;52.278;20.972;2023-11-21T15:26:55;-0.30;99.90
76967;DHT22;65904;52.278;20.972;2023-11-21T15:29:42;-0.30;99.90
76967;DHT22;65904;52.278;20.972;2023-11-21T15:32:29;-0.30;99.90
76967;DHT22;65904;52.278;20.972;2023-11-21T15:35:16;-0.20;99.90
76967;DHT22;65904;52.278;20.972;2023-11-21T15:38:02;-0.30;99.90
76967;DHT22;65904;52.278;20.972;2023-11-21T15:40:48;-0.20;99.90
76967;DHT22;65904;52.278;20.972;2023-11-21T15:43:34;-0.20;99.90
76967;DHT22;65904;52.278;20.972;2023-11-21T15:46:20;-0.20;99.90
76967;DHT22;65904;52.278;20.972;2023-11-21T15:49:10;-0.20;99.90
76967;DHT22;65904;52.278;20.972;2023-11-21T15:51:58;-0.10;99.90
76967;DHT22;65904;52.278;20.972;2023-11-21T15:54:44;-0.20;99.90
76967;DHT22;65904;52.278;20.972;2023-11-21T15:57:31;-0.20;99.90
76967;DHT22;65904;52.278;20.972;2023-11-21T16:00:17;-0.20;99.90
76967;DHT22;65904;52.278;20.972;2023-11-21T16:03:06;-0.20;99.90
76967;DHT22;65904;52.278;20.972;2023-11-21T16:05:55;-0.20;99.90
76967;DHT22;65904;52.278;20.972;2023-11-21T16:08:42;-0.20;99.90
76967;DHT22;65904;52.278;20.972;2023-11-21T16:11:28;-0.30;99.90
76967;DHT22;65904;52.278;20.972;2023-11-21T16:14:15;-0.20;99.90
76967;DHT22;65904;52.278;20.972;2023-11-21T16:17:04;-0.20;99.90
76967;DHT22;65904;52.278;20.972;2023-11-21T16:19:52;-0.20;99.90
76967;DHT22;65904;52.278;20.972;2023-11-21T16:22:41;-0.30;99.90
76967;DHT22;65904;52.278;20.972;2023-11-21T16:25:29;-0.30;99.90
76967;DHT22;65904;52.278;20.972;2023-11-21T16:28:15;-0.30;99.90
76967;DHT22;65904;52.278;20.972;2023-11-21T16:31:03;-0.30;99.90
76967;DHT22;65904;52.278;20.972;2023-11-21T16:33:49;-0.30;99.90
76967;DHT22;65904;52.278;20.972;2023-11-21T16:36:35;-0.30;99.90
76967;DHT22;65904;52.278;20.972;2023-11-21T16:39:23;-0.30;99.90
76967;DHT22;65904;52.278;20.972;2023-11-21T16:42:09;-0.40;99.90
76967;DHT22;65904;52.278;20.972;2023-11-21T16:44:55;-0.40;99.90
76967;DHT22;65904;52.278;20.972;2023-11-21T16:47:42;-0.30;99.90
76967;DHT22;65904;52.278;20.972;2023-11-21T16:50:29;-0.30;99.90
76967;DHT22;65904;52.278;20.972;2023-11-21T16:53:15;-0.30;99.90
76967;DHT22;65904;52.278;20.972;2023-11-21T16:56:03;-0.30;99.90
76967;DHT22;65904;52.278;20.972;2023-11-21T16:58:49;-0.30;99.90
76967;DHT22;65904;52.278;20.972;2023-11-21T17:01:36;-0.30;99.90
76967;DHT22;65904;52.278;20.972;2023-11-21T17:04:23;-0.40;99.90
76967;DHT22;65904;52.278;20.972;2023-11-21T17:07:09;-0.30;99.90
76967;DHT22;65904;52.278;20.972;2023-11-21T17:09:55;-0.30;99.90
76967;DHT22;65904;52.278;20.972;2023-11-21T17:12:42;-0.30;99.90
76967;DHT22;65904;52.278;20.972;2023-11-21T17:15:29;-0.30;99.90
76967;DHT22;65904;52.278;20.972;2023-11-21T17:18:15;-0.30;99.90
76967;DHT22;65904;52.278;20.972;2023-11-21T17:21:01;-0.30;99.90
76967;DHT22;65904;52.278;20.972;2023-11-21T17:23:48;-0.40;99.90
76967;DHT22;65904;52.278;20.972;2023-11-21T17:26:34;-0.40;99.90
76967;DHT22;65904;52.278;20.972;2023-11-21T17:29:22;-0.30;99.90
76967;DHT22;65904;52.278;20.972;2023-11-21T17:32:08;-0.40;99.90